Portland, OR

11:25 PM PDT on August 19, 2014 (GMT -0700)
Pearson | Change Station
CLOSE
Current Station
Airport
Location: Vancouver,
Elevation: 26 ft
Nearby Weather Stations

Elev 26 ft 45.62 °N, 122.65 °W | Updated 32 minutes ago

Mostly Cloudy
Mostly Cloudy
66 °F
Feels Like 66 °F
N
5
Wind Variable Wind from Variable

Today
High -- | Low -- °F
--% Chance of Precip.
Yesterday
High -- | Low -- °F
Precip. -- in
6:16 AM 8:11 PM
Waning Crescent, 24% visible
Pressure 29.88 in
Visibility 10.0 miles
Clouds Mostly Cloudy 6000 ft
Dew Point 55 °F
Humidity 68%
Rainfall 0.00 in
Snow Depth Not available.
UV 0 out of 12
Pollen 4.30 out of 12
Ozone Good
PM2.5 Good
Flu Activity Not available.
METAR KVUO 200553Z AUTO VRB04KT 10SM BKN060 19/13 A2988 RMK AO2 SLP117 T01890128 10283 20189 51015

More Conditions Fewer Conditions

Pressure 29.88 in
Visibility 10.0 miles
Clouds Mostly Cloudy 6000 ft
Dew Point 55 °F
Humidity 68%
Rainfall 0.00 in
Snow Depth Not available.
UV 0 out of 12
Pollen 4.30 out of 12
Ozone Good
PM2.5 Good
Flu Activity Not available.
METAR KVUO 200553Z AUTO VRB04KT 10SM BKN060 19/13 A2988 RMK AO2 SLP117 T01890128 10283 20189 51015

More Conditions Fewer Conditions

10-Day Weather Forecast

Almanac

Astronomy

Aug. 19, 2014 Rise Set
Actual Time 6:16 AM PDT 8:11 PM PDT
Civil Twilight 5:44 AM PDT 8:43 PM PDT
Nautical Twilight 5:05 AM PDT 9:21 PM PDT
Astronomical Twilight 4:22 AM PDT 10:04 PM PDT
Moon 1:07 AM PDT (8/19) 4:17 PM PDT (8/19)
Length of Visible Light 14h 58m
Length of Day
13h 54m
Tomorrow will be 2m 56s shorter.
Waning Crescent, 24% of the Moon is Illuminated
Aug 20
Waning Crescent
Aug 25
New
Sep 2
First Quarter
Sep 8
Full
Sep 15
Last Quarter

Community

WunderPhotos

Upload Photos

1,745,592 photos uploaded!

Nearby

Air Quality

  Air Quality AQ Index Pollutant
Yesterday Good
OZONE
Yesterday Good
PM2.5
Current Good
OZONE
Current Good
PM2.5
Tuesday Good
PM2.5
Wednesday Good
PM2.5

Snow Depth

Station Depth Elevation
Seine Creek 0 in 2000 ft
North Fork 1 in 3120 ft
Blazed Alder 1 in 3650 ft
Red Hill 0 in 4400 ft
Peavine Ridge 0 in 3500 ft

Earthquake Activity

City Distance Mag. Time & Date
No recent earthquake activity has been reported nearby.
Minimum magnitude displayed is 2.5.

Coastal Water Temperatures

Place Temperature
No Stations Reporting

Nearby Weather Stations